createdAt,value
2022-11-16T00:00:48.355Z,992.18
2022-11-16T00:03:48.358Z,992.21
2022-11-16T00:06:48.422Z,992.22
2022-11-16T00:09:48.359Z,992.19
2022-11-16T00:12:48.354Z,992.2
2022-11-16T00:15:48.352Z,992.21
2022-11-16T00:18:48.354Z,992.25
2022-11-16T00:21:48.349Z,992.29
2022-11-16T00:24:48.343Z,992.26
2022-11-16T00:27:48.343Z,992.27
2022-11-16T00:30:48.345Z,992.28
2022-11-16T00:33:48.343Z,992.3
2022-11-16T00:36:48.345Z,992.29
2022-11-16T00:39:48.337Z,992.31
2022-11-16T00:42:48.332Z,992.27
2022-11-16T00:45:48.341Z,992.23
2022-11-16T00:48:48.334Z,992.27
2022-11-16T00:51:48.336Z,992.25
2022-11-16T00:54:48.350Z,992.25
2022-11-16T00:57:48.336Z,992.25
2022-11-16T01:00:48.340Z,992.27
2022-11-16T01:03:48.330Z,992.22
2022-11-16T01:06:48.415Z,992.15
2022-11-16T01:09:48.341Z,992.09
2022-11-16T01:12:48.330Z,992.1
2022-11-16T01:15:48.333Z,992.14
2022-11-16T01:18:48.326Z,992.1
2022-11-16T01:21:48.325Z,992.08
2022-11-16T01:24:48.324Z,992.08
2022-11-16T01:27:48.330Z,992.05
2022-11-16T01:30:48.320Z,992
2022-11-16T01:33:48.330Z,991.98
2022-11-16T01:36:48.324Z,991.93
2022-11-16T01:39:48.323Z,991.9
2022-11-16T01:42:48.330Z,991.87
2022-11-16T01:45:48.321Z,991.88
2022-11-16T01:48:48.364Z,991.84
2022-11-16T01:51:48.315Z,991.81
2022-11-16T01:54:48.321Z,991.78
2022-11-16T01:57:48.315Z,991.77
2022-11-16T02:00:48.440Z,991.76
2022-11-16T02:03:48.311Z,991.75
2022-11-16T02:06:48.328Z,991.7
2022-11-16T02:09:48.312Z,991.69
2022-11-16T02:12:48.316Z,991.68
2022-11-16T02:15:48.312Z,991.62
2022-11-16T02:18:48.304Z,991.61
2022-11-16T02:21:48.305Z,991.56
2022-11-16T02:24:48.316Z,991.58
2022-11-16T02:27:48.311Z,991.54
2022-11-16T02:30:48.305Z,991.53
2022-11-16T02:33:48.308Z,991.5
2022-11-16T02:36:48.300Z,991.47
2022-11-16T02:39:48.302Z,991.46
2022-11-16T02:42:48.306Z,991.45
2022-11-16T02:45:48.303Z,991.4
2022-11-16T02:48:48.300Z,991.41
2022-11-16T02:51:48.299Z,991.41
2022-11-16T02:54:48.300Z,991.4
2022-11-16T02:57:48.299Z,991.37
2022-11-16T03:00:48.376Z,991.36
2022-11-16T03:03:48.299Z,991.32
2022-11-16T03:06:48.319Z,991.28
2022-11-16T03:09:48.339Z,991.33
2022-11-16T03:12:48.294Z,991.34
2022-11-16T03:15:48.298Z,991.35
2022-11-16T03:18:48.281Z,991.33
2022-11-16T03:21:48.294Z,991.34
2022-11-16T03:24:48.282Z,991.36
2022-11-16T03:27:48.279Z,991.36
2022-11-16T03:30:48.285Z,991.37
2022-11-16T03:33:48.281Z,991.31
2022-11-16T03:36:48.284Z,991.32
2022-11-16T03:39:48.284Z,991.26
2022-11-16T03:42:48.270Z,991.28
2022-11-16T03:45:48.276Z,991.2
2022-11-16T03:48:48.282Z,991.13
2022-11-16T03:51:48.277Z,991.1
2022-11-16T03:54:48.278Z,991.12
2022-11-16T03:57:48.280Z,991.13
2022-11-16T04:00:48.314Z,991.18
2022-11-16T04:03:48.277Z,991.17
2022-11-16T04:06:48.352Z,991.24
2022-11-16T04:09:48.273Z,991.29
2022-11-16T04:12:48.265Z,991.29
2022-11-16T04:15:48.261Z,991.38
2022-11-16T04:18:48.268Z,991.37
2022-11-16T04:21:48.262Z,991.36
2022-11-16T04:24:48.260Z,991.37
2022-11-16T04:27:48.262Z,991.38
2022-11-16T04:30:48.254Z,991.34
2022-11-16T04:33:48.261Z,991.32
2022-11-16T04:36:48.258Z,991.34
2022-11-16T04:39:48.320Z,991.35
2022-11-16T04:42:48.253Z,991.35
2022-11-16T04:45:48.254Z,991.32
2022-11-16T04:48:48.247Z,991.31
2022-11-16T04:51:48.249Z,991.29
2022-11-16T04:54:48.241Z,991.39
2022-11-16T04:57:48.248Z,991.41
2022-11-16T05:00:48.251Z,991.41
2022-11-16T05:03:48.244Z,991.35
2022-11-16T05:06:48.292Z,991.4
2022-11-16T05:09:48.244Z,991.5
2022-11-16T05:12:48.237Z,991.51
2022-11-16T05:15:48.248Z,991.5
2022-11-16T05:18:48.240Z,991.49
2022-11-16T05:21:48.237Z,991.48
2022-11-16T05:24:48.245Z,991.48
2022-11-16T05:27:48.235Z,991.49
2022-11-16T05:30:48.237Z,991.51
2022-11-16T05:33:48.238Z,991.48
2022-11-16T05:36:48.231Z,991.43
2022-11-16T05:39:48.235Z,991.49
2022-11-16T05:42:48.230Z,991.43
2022-11-16T05:45:48.230Z,991.46
2022-11-16T05:48:48.230Z,991.51
2022-11-16T05:51:48.229Z,991.51
2022-11-16T05:54:48.226Z,991.52
2022-11-16T05:57:48.229Z,991.55
2022-11-16T06:00:48.229Z,991.62
2022-11-16T06:03:48.235Z,991.63
2022-11-16T06:06:48.260Z,991.6
2022-11-16T06:09:48.228Z,991.61
2022-11-16T06:12:48.231Z,991.62
2022-11-16T06:15:53.373Z,991.67
2022-11-16T06:18:48.223Z,991.69
2022-11-16T06:21:48.221Z,991.66
2022-11-16T06:24:48.221Z,991.7
2022-11-16T06:27:48.234Z,991.71
2022-11-16T06:30:48.220Z,991.78
2022-11-16T06:33:48.223Z,991.85
2022-11-16T06:36:48.227Z,991.87
2022-11-16T06:39:48.226Z,991.8
2022-11-16T06:42:48.214Z,991.81
2022-11-16T06:45:48.215Z,991.86
2022-11-16T06:48:48.214Z,991.78
2022-11-16T06:51:48.218Z,991.83
2022-11-16T06:54:48.208Z,991.91
2022-11-16T06:57:48.210Z,991.91
2022-11-16T07:00:48.213Z,991.9
2022-11-16T07:03:48.218Z,991.89
2022-11-16T07:06:48.238Z,991.97
2022-11-16T07:09:48.223Z,991.99
2022-11-16T07:12:48.213Z,992.05
2022-11-16T07:15:48.205Z,992.09
2022-11-16T07:18:48.206Z,992.15
2022-11-16T07:21:48.212Z,992.16
2022-11-16T07:24:48.204Z,992.21
2022-11-16T07:27:48.202Z,992.2
2022-11-16T07:30:48.203Z,992.25
2022-11-16T07:33:48.192Z,992.25
2022-11-16T07:36:48.198Z,992.29
2022-11-16T07:39:48.200Z,992.31
2022-11-16T07:42:48.196Z,992.34
2022-11-16T07:45:48.200Z,992.39
2022-11-16T07:48:48.196Z,992.41
2022-11-16T07:51:48.200Z,992.39
2022-11-16T07:54:48.191Z,992.43
2022-11-16T07:57:53.047Z,992.37
2022-11-16T08:00:48.193Z,992.36
2022-11-16T08:03:48.189Z,992.42
2022-11-16T08:06:48.325Z,992.42
2022-11-16T08:09:48.256Z,992.5
2022-11-16T08:12:48.228Z,992.53
2022-11-16T08:15:48.221Z,992.51
2022-11-16T08:18:48.216Z,992.58
2022-11-16T08:21:48.215Z,992.54
2022-11-16T08:24:48.216Z,992.56
2022-11-16T08:27:48.218Z,992.57
2022-11-16T08:30:52.538Z,992.63
2022-11-16T08:33:48.204Z,992.7
2022-11-16T08:36:48.214Z,992.69
2022-11-16T08:39:48.252Z,992.75
2022-11-16T08:42:48.208Z,992.77
2022-11-16T08:45:48.205Z,992.84
2022-11-16T08:48:48.310Z,992.88
2022-11-16T08:51:48.204Z,992.93
2022-11-16T08:54:48.207Z,992.98
2022-11-16T08:57:48.204Z,993.06
2022-11-16T09:00:48.198Z,993.1
2022-11-16T09:03:48.201Z,993.11
2022-11-16T09:06:48.251Z,993.14
2022-11-16T09:09:48.205Z,993.13
2022-11-16T09:12:48.195Z,993.11
2022-11-16T09:15:48.192Z,993.09
2022-11-16T09:18:48.193Z,993.05
2022-11-16T09:21:48.200Z,993.02
2022-11-16T09:24:48.199Z,993.07
2022-11-16T09:27:48.186Z,993.06
2022-11-16T09:30:48.192Z,993.17
2022-11-16T09:33:48.189Z,993.19
2022-11-16T09:36:48.184Z,993.19
2022-11-16T09:39:48.195Z,993.23
2022-11-16T09:42:48.185Z,993.27
2022-11-16T09:45:48.190Z,993.32
2022-11-16T09:48:48.186Z,993.35
2022-11-16T09:51:48.189Z,993.43
2022-11-16T09:54:48.188Z,993.49
2022-11-16T09:57:48.182Z,993.52
2022-11-16T10:00:48.205Z,993.5
2022-11-16T10:03:48.177Z,993.41
2022-11-16T10:06:48.199Z,993.42
2022-11-16T10:09:48.181Z,993.41
2022-11-16T10:12:48.176Z,993.38
2022-11-16T10:15:48.177Z,993.39
2022-11-16T10:18:48.175Z,993.37
2022-11-16T10:21:48.171Z,993.38
2022-11-16T10:24:48.176Z,993.34
2022-11-16T10:27:48.175Z,993.38
2022-11-16T10:30:48.169Z,993.35
2022-11-16T10:33:48.174Z,993.33
2022-11-16T10:36:48.168Z,993.38
2022-11-16T10:39:48.167Z,993.36
2022-11-16T10:42:48.168Z,993.35
2022-11-16T10:45:48.154Z,993.31
2022-11-16T10:48:48.166Z,993.29
2022-11-16T10:51:48.168Z,993.27
2022-11-16T10:54:48.165Z,993.25
2022-11-16T10:57:48.165Z,993.22
2022-11-16T11:00:48.206Z,993.22
2022-11-16T11:03:48.156Z,993.2
2022-11-16T11:06:48.192Z,993.12
2022-11-16T11:09:48.156Z,993.13
2022-11-16T11:12:48.158Z,993.06
2022-11-16T11:15:48.151Z,993.07
2022-11-16T11:18:48.151Z,993.11
2022-11-16T11:21:48.153Z,993.11
2022-11-16T11:24:48.155Z,993.09
2022-11-16T11:27:48.155Z,993.09
2022-11-16T11:30:48.154Z,993.1
2022-11-16T11:33:48.161Z,993.04
2022-11-16T11:36:48.165Z,993
2022-11-16T11:39:48.197Z,993.02
2022-11-16T11:42:48.146Z,992.96
2022-11-16T11:45:48.143Z,992.93
2022-11-16T11:48:48.149Z,992.92
2022-11-16T11:51:48.231Z,992.9
2022-11-16T11:54:48.138Z,992.89
2022-11-16T11:57:48.137Z,992.87
2022-11-16T12:00:48.140Z,992.89
2022-11-16T12:03:48.138Z,992.86
2022-11-16T12:06:48.298Z,992.77
2022-11-16T12:09:48.139Z,992.73
2022-11-16T12:12:48.138Z,992.72
2022-11-16T12:15:48.142Z,992.74
2022-11-16T12:18:48.134Z,992.79
2022-11-16T12:21:48.141Z,992.76
2022-11-16T12:24:48.124Z,992.71
2022-11-16T12:27:48.136Z,992.7
2022-11-16T12:30:48.130Z,992.66
2022-11-16T12:33:48.125Z,992.61
2022-11-16T12:36:48.132Z,992.57
2022-11-16T12:39:48.126Z,992.57
2022-11-16T12:42:48.127Z,992.53
2022-11-16T12:45:48.126Z,992.56
2022-11-16T12:48:48.123Z,992.58
2022-11-16T12:51:48.122Z,992.55
2022-11-16T12:55:18.910Z,992.56
2022-11-16T12:57:48.116Z,992.53
2022-11-16T13:00:48.176Z,992.48
2022-11-16T13:03:48.110Z,992.42
2022-11-16T13:06:48.168Z,992.34
2022-11-16T13:09:48.117Z,992.31
2022-11-16T13:12:48.101Z,992.29
2022-11-16T13:15:48.106Z,992.26
2022-11-16T13:18:48.105Z,992.18
2022-11-16T13:21:48.108Z,992.14
2022-11-16T13:24:48.108Z,992.1
2022-11-16T13:27:48.108Z,992.06
2022-11-16T13:30:48.108Z,992.05
2022-11-16T13:33:50.898Z,992.03
2022-11-16T13:36:48.102Z,991.96
2022-11-16T13:39:48.101Z,991.91
2022-11-16T13:42:48.100Z,991.87
2022-11-16T13:45:48.100Z,991.87
2022-11-16T13:48:48.104Z,991.82
2022-11-16T13:51:48.097Z,991.78
2022-11-16T13:54:48.384Z,991.74
2022-11-16T13:57:48.095Z,991.69
2022-11-16T14:00:48.122Z,991.68
2022-11-16T14:03:48.098Z,991.68
2022-11-16T14:06:48.146Z,991.81
2022-11-16T14:09:48.091Z,991.79
2022-11-16T14:12:48.096Z,991.73
2022-11-16T14:15:48.091Z,991.72
2022-11-16T14:18:48.094Z,991.7
2022-11-16T14:21:48.085Z,991.64
2022-11-16T14:24:48.083Z,991.62
2022-11-16T14:27:48.116Z,991.54
2022-11-16T14:30:48.084Z,991.5
2022-11-16T14:33:48.085Z,991.45
2022-11-16T14:36:48.082Z,991.48
2022-11-16T14:39:48.083Z,991.59
2022-11-16T14:43:09.831Z,991.57
2022-11-16T14:45:48.081Z,991.52
2022-11-16T14:48:48.084Z,991.5
2022-11-16T14:51:48.083Z,991.52
2022-11-16T14:54:48.077Z,991.48
2022-11-16T14:57:48.079Z,991.52
2022-11-16T15:00:48.072Z,991.5
2022-11-16T15:03:48.115Z,991.46
2022-11-16T15:06:48.080Z,991.47
2022-11-16T15:09:48.073Z,991.42
2022-11-16T15:12:48.075Z,991.41
2022-11-16T15:15:48.069Z,991.35
2022-11-16T15:18:48.069Z,991.32
2022-11-16T15:21:48.070Z,991.34
2022-11-16T15:24:48.064Z,991.36
2022-11-16T15:27:48.074Z,991.43
2022-11-16T15:30:48.062Z,991.42
2022-11-16T15:33:48.069Z,991.41
2022-11-16T15:36:48.067Z,991.43
2022-11-16T15:39:48.063Z,991.4
2022-11-16T15:42:49.083Z,991.38
2022-11-16T15:45:48.057Z,991.34
2022-11-16T15:48:48.061Z,991.27
2022-11-16T15:51:48.060Z,991.27
2022-11-16T15:54:48.065Z,991.31
2022-11-16T15:57:48.062Z,991.29
2022-11-16T16:00:48.057Z,991.2
2022-11-16T16:03:48.065Z,991.18
2022-11-16T16:06:48.077Z,991.1
2022-11-16T16:09:48.055Z,991.07
2022-11-16T16:12:48.061Z,991.04
2022-11-16T16:15:48.054Z,991.04
2022-11-16T16:18:48.056Z,991.01
2022-11-16T16:21:48.042Z,991.05
2022-11-16T16:24:48.052Z,991.01
2022-11-16T16:27:48.052Z,990.93
2022-11-16T16:30:48.053Z,990.91
2022-11-16T16:33:48.048Z,990.91
2022-11-16T16:36:48.046Z,990.95
2022-11-16T16:39:48.043Z,991.01
2022-11-16T16:42:48.060Z,991
2022-11-16T16:45:48.049Z,991.03
2022-11-16T16:48:48.046Z,991
2022-11-16T16:51:48.052Z,990.99
2022-11-16T16:54:48.048Z,990.94
2022-11-16T16:57:48.044Z,990.86
2022-11-16T17:00:48.115Z,990.84
2022-11-16T17:03:48.041Z,990.86
2022-11-16T17:06:48.047Z,990.76
2022-11-16T17:09:48.043Z,990.72
2022-11-16T17:12:48.038Z,990.69
2022-11-16T17:15:48.039Z,990.67
2022-11-16T17:18:48.039Z,990.63
2022-11-16T17:21:48.037Z,990.57
2022-11-16T17:24:48.167Z,990.56
2022-11-16T17:27:48.049Z,990.51
2022-11-16T17:30:48.037Z,990.45
2022-11-16T17:33:48.041Z,990.48
2022-11-16T17:36:48.029Z,990.45
2022-11-16T17:39:48.034Z,990.46
2022-11-16T17:42:48.036Z,990.42
2022-11-16T17:45:48.034Z,990.4
2022-11-16T17:48:48.027Z,990.38
2022-11-16T17:51:48.031Z,990.37
2022-11-16T17:54:48.028Z,990.36
2022-11-16T17:57:48.030Z,990.32
2022-11-16T18:00:48.064Z,990.29
2022-11-16T18:03:48.023Z,990.3
2022-11-16T18:06:48.024Z,990.32
2022-11-16T18:09:48.020Z,990.36
2022-11-16T18:12:48.018Z,990.32
2022-11-16T18:15:48.033Z,990.31
2022-11-16T18:18:48.022Z,990.29
2022-11-16T18:21:48.023Z,990.25
2022-11-16T18:24:48.017Z,990.25
2022-11-16T18:27:48.017Z,990.2
2022-11-16T18:30:48.017Z,990.13
2022-11-16T18:33:48.013Z,990.19
2022-11-16T18:36:48.013Z,990.09
2022-11-16T18:39:48.005Z,990.03
2022-11-16T18:42:48.012Z,989.99
2022-11-16T18:45:48.007Z,990.01
2022-11-16T18:48:48.001Z,989.93
2022-11-16T18:51:48.003Z,989.91
2022-11-16T18:54:48.004Z,989.94
2022-11-16T18:57:47.998Z,989.92
2022-11-16T19:00:48.033Z,989.9
2022-11-16T19:03:48.000Z,989.87
2022-11-16T19:06:47.999Z,989.83
2022-11-16T19:09:48.005Z,989.75
2022-11-16T19:12:48.002Z,989.71
2022-11-16T19:15:47.999Z,989.69
2022-11-16T19:18:47.994Z,989.65
2022-11-16T19:21:47.992Z,989.67
2022-11-16T19:24:47.992Z,989.67
2022-11-16T19:27:47.989Z,989.67
2022-11-16T19:30:47.985Z,989.66
2022-11-16T19:33:47.997Z,989.65
2022-11-16T19:36:47.992Z,989.69
2022-11-16T19:39:47.992Z,989.77
2022-11-16T19:42:47.989Z,989.74
2022-11-16T19:45:47.989Z,989.7
2022-11-16T19:48:47.990Z,989.69
2022-11-16T19:51:47.989Z,989.64
2022-11-16T19:54:47.979Z,989.65
2022-11-16T19:57:47.982Z,989.68
2022-11-16T20:00:48.028Z,989.75
2022-11-16T20:03:47.989Z,989.72
2022-11-16T20:06:47.978Z,989.66
2022-11-16T20:09:52.113Z,989.69
2022-11-16T20:12:47.978Z,989.71
2022-11-16T20:15:47.989Z,989.68
2022-11-16T20:18:47.967Z,989.76
2022-11-16T20:21:48.013Z,989.62
2022-11-16T20:24:47.976Z,989.56
2022-11-16T20:27:47.972Z,989.47
2022-11-16T20:30:47.966Z,989.43
2022-11-16T20:33:47.966Z,989.37
2022-11-16T20:36:47.960Z,989.29
2022-11-16T20:39:47.957Z,989.3
2022-11-16T20:42:47.962Z,989.28
2022-11-16T20:45:47.955Z,989.29
2022-11-16T20:48:47.953Z,989.29
2022-11-16T20:51:47.956Z,989.24
2022-11-16T20:54:47.955Z,989.22
2022-11-16T20:57:47.953Z,989.19
2022-11-16T21:00:47.951Z,989.08
2022-11-16T21:03:47.954Z,989.14
2022-11-16T21:06:47.966Z,989.16
2022-11-16T21:09:47.962Z,989.11
2022-11-16T21:12:47.939Z,989.07
2022-11-16T21:15:47.943Z,989
2022-11-16T21:18:47.932Z,988.94
2022-11-16T21:21:47.935Z,988.94
2022-11-16T21:24:47.939Z,988.9
2022-11-16T21:27:47.939Z,988.88
2022-11-16T21:30:47.937Z,988.9
2022-11-16T21:33:47.932Z,988.8
2022-11-16T21:36:47.938Z,988.78
2022-11-16T21:39:47.936Z,988.77
2022-11-16T21:42:47.935Z,988.76
2022-11-16T21:45:47.924Z,988.78
2022-11-16T21:48:47.932Z,988.75
2022-11-16T21:51:47.944Z,988.72
2022-11-16T21:54:47.922Z,988.75
2022-11-16T21:57:47.925Z,988.73
2022-11-16T22:00:47.924Z,988.69
2022-11-16T22:03:47.918Z,988.66
2022-11-16T22:06:47.923Z,988.58
2022-11-16T22:09:47.912Z,988.57
2022-11-16T22:12:47.919Z,988.56
2022-11-16T22:15:47.913Z,988.45
2022-11-16T22:18:47.919Z,988.5
2022-11-16T22:21:47.915Z,988.48
2022-11-16T22:24:47.916Z,988.41
2022-11-16T22:28:13.707Z,988.35
2022-11-16T22:30:51.563Z,988.24
2022-11-16T22:33:47.912Z,988.26
2022-11-16T22:36:47.903Z,988.17
2022-11-16T22:39:47.907Z,988.13
2022-11-16T22:42:47.909Z,988.14
2022-11-16T22:45:47.906Z,988.09
2022-11-16T22:48:47.929Z,988.04
2022-11-16T22:51:47.904Z,987.99
2022-11-16T22:54:47.904Z,988.01
2022-11-16T22:57:47.901Z,987.97
2022-11-16T23:00:47.900Z,987.92
2022-11-16T23:03:47.942Z,987.89
2022-11-16T23:06:47.903Z,987.88
2022-11-16T23:09:47.902Z,987.85
2022-11-16T23:12:47.903Z,987.8
2022-11-16T23:15:47.896Z,987.82
2022-11-16T23:18:47.896Z,987.72
2022-11-16T23:21:47.900Z,987.71
2022-11-16T23:24:47.896Z,987.71
2022-11-16T23:27:47.894Z,987.63
2022-11-16T23:30:47.893Z,987.62
2022-11-16T23:33:47.912Z,987.6
2022-11-16T23:36:47.889Z,987.58
2022-11-16T23:39:47.883Z,987.5
2022-11-16T23:42:47.889Z,987.41
2022-11-16T23:45:47.887Z,987.33
2022-11-16T23:48:47.940Z,987.25
2022-11-16T23:51:47.885Z,987.2
2022-11-16T23:54:47.885Z,987.19
2022-11-16T23:57:47.886Z,987.14
